New Harbour, Canada
Current Conditions -  °F | °C
As of 8:00 PM on Monday 20 Oct 2014 (Local Time) from CYYT Reporting Station
Few Clouds Few Clouds  
Wind Chill: 40°   Ceiling: Unl
Heat Index: 48°   Visibility: 15mi
Dew Point: 43°   Wind: 29mph
Humidity: 82%   Direction: 240°WSW
Pressure: 29.65"   Gusts: 44mph
Location:  47.58°N, 53.55°W
Report Text: CYYT 202200Z 24025G38KT 15SM FEW030 09/06 A2965 RMK SC2 SLP044
Loading
Personal Weather Stations






























Interactive Weather Map
Tropical Storm Tracking
New forecast layout! Learn more

10-Day Weather Forecast

Advertisements
Track Severe Weather on mobile